Terminal Aerodrome Forecast
Issued by NWS

Home | Current Version | Previous Version | Text Only | Print | Product List | Glossary On
Versions: 1 2 3 4 5 6 7 8 9 10 11 12 13 14 15 16 17 18 19
000
FTUS42 KRAH 282341 AAC
TAFINT
TAF AMD
KINT 282341Z 2900/2924 25006KT P6SM BKN090
     FM290300 26003KT P6SM BKN250
     FM290700 VRB03KT 4SM BR BKN003
      TEMPO 2907/2910 1SM BR OVC002
     FM291000 VRB02KT 1 1/2SM BR OVC003
     FM291330 30005KT P6SM FEW025=

USA.gov is the U.S. government's official web portal to all federal, state and local government web resources and services.